createdAt,value
2018-11-11T00:00:23.137Z,12.13
2018-11-11T00:01:23.116Z,12.18
2018-11-11T00:02:23.148Z,12.15
2018-11-11T00:03:23.092Z,12.21
2018-11-11T00:04:23.084Z,12.16
2018-11-11T00:05:23.088Z,12.16
2018-11-11T00:06:23.065Z,12.13
2018-11-11T00:07:23.049Z,12.18
2018-11-11T00:08:23.098Z,12.16
2018-11-11T00:09:23.030Z,12.16
2018-11-11T00:10:23.031Z,12.15
2018-11-11T00:11:23.010Z,12.18
2018-11-11T00:12:23.001Z,12.15
2018-11-11T00:13:22.985Z,12.12
2018-11-11T00:14:22.999Z,12.16
2018-11-11T00:15:22.978Z,12.11
2018-11-11T00:16:22.952Z,12.13
2018-11-11T00:17:22.944Z,12.13
2018-11-11T00:18:22.940Z,12.16
2018-11-11T00:19:22.919Z,12.19
2018-11-11T00:20:22.935Z,12.16
2018-11-11T00:21:22.899Z,12.15
2018-11-11T00:22:22.890Z,12.12
2018-11-11T00:23:22.896Z,12.13
2018-11-11T00:24:22.863Z,12.16
2018-11-11T00:25:22.869Z,12.11
2018-11-11T00:26:22.853Z,12.11
2018-11-11T00:27:22.861Z,12.16
2018-11-11T00:28:22.881Z,12.11
2018-11-11T00:29:22.813Z,12.16
2018-11-11T00:30:22.815Z,12.16
2018-11-11T00:31:22.789Z,12.16
2018-11-11T00:32:22.788Z,12.12
2018-11-11T00:33:22.771Z,12.16
2018-11-11T00:34:22.779Z,12.16
2018-11-11T00:35:22.760Z,12.15
2018-11-11T00:36:22.736Z,12.15
2018-11-11T00:37:22.724Z,12.16
2018-11-11T00:38:22.712Z,12.11
2018-11-11T00:39:22.705Z,12.15
2018-11-11T00:40:22.747Z,12.13
2018-11-11T00:41:22.682Z,12.08
2018-11-11T00:42:22.676Z,12.11
2018-11-11T00:43:22.661Z,12.08
2018-11-11T00:44:22.668Z,12.15
2018-11-11T00:45:22.652Z,12.16
2018-11-11T00:46:22.652Z,12.15
2018-11-11T00:47:22.617Z,12.15
2018-11-11T00:48:22.606Z,12.18
2018-11-11T00:49:22.611Z,12.16
2018-11-11T00:50:22.597Z,12.16
2018-11-11T00:51:22.586Z,12.16
2018-11-11T00:52:22.573Z,12.13
2018-11-11T00:53:22.575Z,12.15
2018-11-11T00:54:22.545Z,12.13
2018-11-11T00:55:22.544Z,12.08
2018-11-11T00:56:22.520Z,12.23
2018-11-11T00:57:22.508Z,12.25
2018-11-11T00:58:22.509Z,12.26
2018-11-11T00:59:22.536Z,12.30
2018-11-11T01:00:22.489Z,12.34
2018-11-11T01:01:22.507Z,12.31
2018-11-11T01:02:22.453Z,12.30
2018-11-11T01:03:22.441Z,12.36
2018-11-11T01:04:22.439Z,12.40
2018-11-11T01:05:22.453Z,12.41
2018-11-11T01:06:22.439Z,12.40
2018-11-11T01:07:22.398Z,12.41
2018-11-11T01:08:22.389Z,12.40
2018-11-11T01:09:22.380Z,12.33
2018-11-11T01:10:22.386Z,12.26
2018-11-11T01:11:22.374Z,12.26
2018-11-11T01:12:22.394Z,12.15
2018-11-11T01:13:22.354Z,12.16
2018-11-11T01:14:22.327Z,12.15
2018-11-11T01:15:22.320Z,12.15
2018-11-11T01:16:22.317Z,12.15
2018-11-11T01:17:22.292Z,12.13
2018-11-11T01:18:22.307Z,12.16
2018-11-11T01:19:22.270Z,12.15
2018-11-11T01:20:22.261Z,12.03
2018-11-11T01:21:22.263Z,12.12
2018-11-11T01:22:22.238Z,12.04
2018-11-11T01:23:22.245Z,12.01
2018-11-11T01:24:22.254Z,11.98
2018-11-11T01:25:22.206Z,12.03
2018-11-11T01:26:22.208Z,12.08
2018-11-11T01:27:22.184Z,12.05
2018-11-11T01:28:22.172Z,12.07
2018-11-11T01:29:22.165Z,12.07
2018-11-11T01:30:22.198Z,11.98
2018-11-11T01:31:22.156Z,12.07
2018-11-11T01:32:22.130Z,12.03
2018-11-11T01:33:22.149Z,12.07
2018-11-11T01:34:22.107Z,11.98
2018-11-11T01:35:22.103Z,12.04
2018-11-11T01:36:22.129Z,12.01
2018-11-11T01:37:22.078Z,12.01
2018-11-11T01:38:22.065Z,12.08
2018-11-11T01:39:22.055Z,12.18
2018-11-11T01:40:22.059Z,12.15
2018-11-11T01:41:22.064Z,12.18
2018-11-11T01:42:22.021Z,12.15
2018-11-11T01:43:22.032Z,12.16
2018-11-11T01:44:22.001Z,12.16
2018-11-11T01:45:21.990Z,12.19
2018-11-11T01:46:22.014Z,12.16
2018-11-11T01:47:21.969Z,12.18
2018-11-11T01:48:21.956Z,12.11
2018-11-11T01:49:21.993Z,12.12
2018-11-11T01:50:21.942Z,12.13
2018-11-11T01:51:21.925Z,12.01
2018-11-11T01:52:21.930Z,12.03
2018-11-11T01:53:21.902Z,11.97
2018-11-11T01:54:21.908Z,11.97
2018-11-11T01:55:21.901Z,11.90
2018-11-11T01:56:21.872Z,11.79
2018-11-11T01:57:21.873Z,11.74
2018-11-11T01:58:21.857Z,11.74
2018-11-11T01:59:21.837Z,11.77
2018-11-11T02:00:21.827Z,11.62
2018-11-11T02:01:21.837Z,11.60
2018-11-11T02:02:21.820Z,11.63
2018-11-11T02:03:21.815Z,11.59
2018-11-11T02:04:21.820Z,11.63
2018-11-11T02:05:21.774Z,11.60
2018-11-11T02:06:21.762Z,11.62
2018-11-11T02:07:21.767Z,11.74
2018-11-11T02:08:21.757Z,11.63
2018-11-11T02:09:21.770Z,11.59
2018-11-11T02:10:21.729Z,11.62
2018-11-11T02:11:21.707Z,11.62
2018-11-11T02:12:21.714Z,11.67
2018-11-11T02:13:21.689Z,11.75
2018-11-11T02:14:21.677Z,11.72
2018-11-11T02:15:21.698Z,11.72
2018-11-11T02:16:21.667Z,11.64
2018-11-11T02:17:21.658Z,11.69
2018-11-11T02:18:21.634Z,11.75
2018-11-11T02:19:21.620Z,11.72
2018-11-11T02:20:21.620Z,11.66
2018-11-11T02:21:21.675Z,11.67
2018-11-11T02:22:21.630Z,11.66
2018-11-11T02:23:21.625Z,11.51
2018-11-11T02:24:21.570Z,11.54
2018-11-11T02:25:21.558Z,11.56
2018-11-11T02:26:21.552Z,11.62
2018-11-11T02:27:21.546Z,11.62
2018-11-11T02:28:21.547Z,11.62
2018-11-11T02:29:21.515Z,11.62
2018-11-11T02:30:21.505Z,11.59
2018-11-11T02:31:21.502Z,11.57
2018-11-11T02:32:21.492Z,11.54
2018-11-11T02:33:21.504Z,11.53
2018-11-11T02:34:21.503Z,11.54
2018-11-11T02:35:21.447Z,11.59
2018-11-11T02:36:21.438Z,11.56
2018-11-11T02:37:21.471Z,11.54
2018-11-11T02:38:21.420Z,11.63
2018-11-11T02:39:21.403Z,11.54
2018-11-11T02:40:21.421Z,11.64
2018-11-11T02:41:21.386Z,11.62
2018-11-11T02:42:21.387Z,11.63
2018-11-11T02:43:21.364Z,11.60
2018-11-11T02:44:21.350Z,11.57
2018-11-11T02:45:21.339Z,11.63
2018-11-11T02:46:21.365Z,11.60
2018-11-11T02:47:21.359Z,11.63
2018-11-11T02:48:21.308Z,11.70
2018-11-11T02:49:21.296Z,11.67
2018-11-11T02:50:21.286Z,11.70
2018-11-11T02:51:21.277Z,11.78
2018-11-11T02:52:21.281Z,11.75
2018-11-11T02:53:21.293Z,11.78
2018-11-11T02:57:50.912Z,11.82
2018-11-11T02:58:50.889Z,11.75
2018-11-11T02:59:50.877Z,11.79
2018-11-11T03:00:50.887Z,11.79
2018-11-11T03:01:50.921Z,11.77
2018-11-11T03:02:50.907Z,11.88
2018-11-11T03:03:50.841Z,11.88
2018-11-11T03:04:50.856Z,11.87
2018-11-11T03:05:50.816Z,11.90
2018-11-11T03:06:50.812Z,11.88
2018-11-11T03:07:50.874Z,11.90
2018-11-11T03:08:50.783Z,11.93
2018-11-11T03:09:50.790Z,11.85
2018-11-11T03:10:50.760Z,11.90
2018-11-11T03:11:50.753Z,11.78
2018-11-11T03:12:50.777Z,11.88
2018-11-11T03:13:50.729Z,11.88
2018-11-11T03:14:50.717Z,11.85
2018-11-11T03:15:50.709Z,11.84
2018-11-11T03:16:50.725Z,11.84
2018-11-11T03:17:50.703Z,11.82
2018-11-11T03:18:50.713Z,11.79
2018-11-11T03:19:50.664Z,11.72
2018-11-11T03:20:50.653Z,11.75
2018-11-11T03:21:50.646Z,11.64
2018-11-11T03:22:50.651Z,11.69
2018-11-11T03:23:50.623Z,11.77
2018-11-11T03:24:50.623Z,11.72
2018-11-11T03:25:50.618Z,11.74
2018-11-11T03:26:50.596Z,11.77
2018-11-11T03:27:50.593Z,11.67
2018-11-11T03:28:50.567Z,11.69
2018-11-11T03:29:50.556Z,11.75
2018-11-11T03:30:50.555Z,11.64
2018-11-11T03:31:50.561Z,11.63
2018-11-11T03:32:50.539Z,11.60
2018-11-11T03:33:50.523Z,11.66
2018-11-11T03:34:50.505Z,11.63
2018-11-11T03:35:50.494Z,11.66
2018-11-11T03:36:50.482Z,11.62
2018-11-11T03:37:50.501Z,11.62
2018-11-11T03:38:50.463Z,11.67
2018-11-11T03:39:50.451Z,11.60
2018-11-11T03:40:50.441Z,11.64
2018-11-11T03:41:50.428Z,11.62
2018-11-11T03:42:50.437Z,11.59
2018-11-11T03:43:50.446Z,11.66
2018-11-11T03:44:50.394Z,11.63
2018-11-11T03:45:50.399Z,11.62
2018-11-11T03:46:50.378Z,11.66
2018-11-11T03:47:50.379Z,11.60
2018-11-11T03:48:50.354Z,11.63
2018-11-11T03:49:50.354Z,11.64
2018-11-11T03:50:50.360Z,11.70
2018-11-11T03:51:50.321Z,11.77
2018-11-11T03:52:50.327Z,11.64
2018-11-11T03:53:50.312Z,11.77
2018-11-11T03:54:50.289Z,11.77
2018-11-11T03:55:50.277Z,11.81
2018-11-11T03:56:50.283Z,11.70
2018-11-11T03:57:50.273Z,11.77
2018-11-11T03:58:50.371Z,11.82
2018-11-11T03:59:50.235Z,11.79
2018-11-11T04:00:50.225Z,11.77
2018-11-11T04:01:50.215Z,11.72
2018-11-11T04:02:50.242Z,11.79
2018-11-11T04:03:50.195Z,11.69
2018-11-11T04:04:50.218Z,11.67
2018-11-11T04:05:50.169Z,11.81
2018-11-11T04:06:50.158Z,11.84
2018-11-11T04:07:50.161Z,11.77
2018-11-11T04:08:50.174Z,11.81
2018-11-11T04:09:50.136Z,11.82
2018-11-11T04:10:50.130Z,11.85
2018-11-11T04:11:50.106Z,11.85
2018-11-11T04:12:50.107Z,11.81
2018-11-11T04:13:50.087Z,11.85
2018-11-11T04:14:50.108Z,11.70
2018-11-11T04:15:50.079Z,11.72
2018-11-11T04:16:50.051Z,11.72
2018-11-11T04:17:50.068Z,11.66
2018-11-11T04:18:50.038Z,11.66
2018-11-11T04:19:50.021Z,11.72
2018-11-11T04:20:50.032Z,11.72
2018-11-11T04:21:50.001Z,11.70
2018-11-11T04:22:50.009Z,11.74
2018-11-11T04:23:49.983Z,11.69
2018-11-11T04:24:49.964Z,11.75
2018-11-11T04:25:49.968Z,11.79
2018-11-11T04:26:49.982Z,11.79
2018-11-11T04:27:49.946Z,11.81
2018-11-11T04:28:49.923Z,11.67
2018-11-11T04:29:49.913Z,11.69
2018-11-11T04:30:49.905Z,11.87
2018-11-11T04:31:49.895Z,11.79
2018-11-11T04:32:49.921Z,11.82
2018-11-11T04:33:49.870Z,11.81
2018-11-11T04:34:49.857Z,11.88
2018-11-11T04:35:49.847Z,11.82
2018-11-11T04:36:49.836Z,11.81
2018-11-11T04:37:49.840Z,11.74
2018-11-11T04:38:49.868Z,11.84
2018-11-11T04:39:49.808Z,11.75
2018-11-11T04:40:49.793Z,11.77
2018-11-11T04:41:49.803Z,11.66
2018-11-11T04:42:49.785Z,11.74
2018-11-11T04:43:49.761Z,11.67
2018-11-11T04:44:49.786Z,11.78
2018-11-11T04:45:49.847Z,11.67
2018-11-11T04:46:49.768Z,11.67
2018-11-11T04:47:49.740Z,11.81
2018-11-11T04:48:49.761Z,11.78
2018-11-11T04:49:49.701Z,11.78
2018-11-11T04:50:49.687Z,11.64
2018-11-11T04:51:49.695Z,11.69
2018-11-11T04:52:49.679Z,11.70
2018-11-11T04:53:49.654Z,11.74
2018-11-11T04:54:49.652Z,11.74
2018-11-11T04:55:49.633Z,11.62
2018-11-11T04:56:49.640Z,11.78
2018-11-11T04:57:49.625Z,11.74
2018-11-11T04:58:49.600Z,11.67
2018-11-11T04:59:49.589Z,11.64
2018-11-11T05:00:49.578Z,11.60
2018-11-11T05:01:49.567Z,11.62
2018-11-11T05:02:49.608Z,11.62
2018-11-11T05:03:49.547Z,11.59
2018-11-11T05:04:49.608Z,11.64
2018-11-11T05:05:49.524Z,11.62
2018-11-11T05:06:49.514Z,11.49
2018-11-11T05:07:49.519Z,11.56
2018-11-11T05:08:49.513Z,11.54
2018-11-11T05:09:49.500Z,11.56
2018-11-11T05:10:49.470Z,11.51
2018-11-11T05:11:49.458Z,11.49
2018-11-11T05:12:49.464Z,11.59
2018-11-11T05:13:49.441Z,11.54
2018-11-11T05:14:49.431Z,11.46
2018-11-11T05:15:49.430Z,11.42
2018-11-11T05:16:49.408Z,11.46
2018-11-11T05:17:49.412Z,11.41
2018-11-11T05:18:49.386Z,11.36
2018-11-11T05:19:49.374Z,11.28
2018-11-11T05:20:49.362Z,11.27
2018-11-11T05:21:49.451Z,11.27
2018-11-11T05:22:49.355Z,11.26
2018-11-11T05:23:49.329Z,11.19
2018-11-11T05:24:49.321Z,11.20
2018-11-11T05:25:49.340Z,11.11
2018-11-11T05:26:49.298Z,11.21
2018-11-11T05:27:49.315Z,11.11
2018-11-11T05:28:49.296Z,11.20
2018-11-11T05:29:49.265Z,11.19
2018-11-11T05:30:49.304Z,11.20
2018-11-11T05:31:49.245Z,11.24
2018-11-11T05:32:49.250Z,11.23
2018-11-11T05:33:49.259Z,11.19
2018-11-11T05:34:49.225Z,11.26
2018-11-11T05:35:49.201Z,11.26
2018-11-11T05:36:49.193Z,11.21
2018-11-11T05:37:49.196Z,11.21
2018-11-11T05:38:49.170Z,11.23
2018-11-11T05:39:49.160Z,11.30
2018-11-11T05:40:49.175Z,11.23
2018-11-11T05:41:49.140Z,11.23
2018-11-11T05:42:49.140Z,11.35
2018-11-11T05:43:49.127Z,11.33
2018-11-11T05:44:49.113Z,11.33
2018-11-11T05:45:49.096Z,11.26
2018-11-11T05:46:49.087Z,11.27
2018-11-11T05:47:49.120Z,11.28
2018-11-11T05:48:49.061Z,11.30
2018-11-11T05:49:49.056Z,11.31
2018-11-11T05:50:49.040Z,11.35
2018-11-11T05:51:49.035Z,11.36
2018-11-11T05:52:49.036Z,11.39
2018-11-11T05:53:49.052Z,11.45
2018-11-11T05:54:48.999Z,11.35
2018-11-11T05:55:48.987Z,11.42
2018-11-11T05:56:48.976Z,11.42
2018-11-11T05:57:48.968Z,11.38
2018-11-11T05:58:48.968Z,11.36
2018-11-11T05:59:48.977Z,11.42
2018-11-11T06:00:48.933Z,11.39
2018-11-11T06:01:48.941Z,11.30
2018-11-11T06:02:48.922Z,11.30
2018-11-11T06:03:48.927Z,11.27
2018-11-11T06:04:48.893Z,11.28
2018-11-11T06:05:48.950Z,11.30
2018-11-11T06:06:48.870Z,11.36
2018-11-11T06:07:48.858Z,11.31
2018-11-11T06:08:48.930Z,11.31
2018-11-11T06:09:48.836Z,11.33
2018-11-11T06:10:48.827Z,11.36
2018-11-11T06:11:48.883Z,11.33
2018-11-11T06:12:48.809Z,11.26
2018-11-11T06:13:48.807Z,11.27
2018-11-11T06:14:48.792Z,11.33
2018-11-11T06:15:48.779Z,11.31
2018-11-11T06:16:48.762Z,11.35
2018-11-11T06:17:48.780Z,11.35
2018-11-11T06:18:48.766Z,11.31
2018-11-11T06:19:48.732Z,11.31
2018-11-11T06:20:48.725Z,11.38
2018-11-11T06:21:48.731Z,11.44
2018-11-11T06:22:48.729Z,11.46
2018-11-11T06:23:48.699Z,11.48
2018-11-11T06:24:48.705Z,11.62
2018-11-11T06:25:48.667Z,11.62
2018-11-11T06:26:48.666Z,11.57
2018-11-11T06:27:48.645Z,11.60
2018-11-11T06:28:48.647Z,11.59
2018-11-11T06:29:48.623Z,11.57
2018-11-11T06:30:48.644Z,11.59
2018-11-11T06:31:48.619Z,11.59
2018-11-11T06:32:48.601Z,11.62
2018-11-11T06:33:48.621Z,11.57
2018-11-11T06:34:48.567Z,11.62
2018-11-11T06:35:48.558Z,11.64
2018-11-11T06:36:48.563Z,11.53
2018-11-11T06:37:48.536Z,11.64
2018-11-11T06:38:48.545Z,11.53
2018-11-11T06:39:48.519Z,11.60
2018-11-11T06:40:48.506Z,11.60
2018-11-11T06:41:48.496Z,11.60
2018-11-11T06:42:48.601Z,11.64
2018-11-11T06:43:48.485Z,11.64
2018-11-11T06:44:48.483Z,11.56
2018-11-11T06:45:48.450Z,11.64
2018-11-11T06:46:48.442Z,11.64
2018-11-11T06:47:48.449Z,11.62
2018-11-11T06:48:48.447Z,11.67
2018-11-11T06:49:48.409Z,11.60
2018-11-11T06:50:48.409Z,11.60
2018-11-11T06:51:48.386Z,11.66
2018-11-11T06:52:48.429Z,11.69
2018-11-11T06:53:48.383Z,11.69
2018-11-11T06:54:48.355Z,11.74
2018-11-11T06:55:48.377Z,11.70
2018-11-11T06:56:48.337Z,11.69
2018-11-11T06:57:48.331Z,11.66
2018-11-11T06:58:48.327Z,11.64
2018-11-11T06:59:48.300Z,11.77
2018-11-11T07:00:48.300Z,11.74
2018-11-11T07:01:48.313Z,11.60
2018-11-11T07:02:48.288Z,11.69
2018-11-11T07:03:48.274Z,11.66
2018-11-11T07:04:48.245Z,11.59
2018-11-11T07:05:48.241Z,11.67
2018-11-11T07:06:48.223Z,11.60
2018-11-11T07:07:48.248Z,11.59
2018-11-11T07:08:48.215Z,11.56
2018-11-11T07:09:48.192Z,11.54
2018-11-11T07:10:48.182Z,11.56
2018-11-11T07:11:48.172Z,11.59
2018-11-11T07:12:48.162Z,11.64
2018-11-11T07:13:48.257Z,11.57
2018-11-11T07:14:48.144Z,11.60
2018-11-11T07:15:48.128Z,11.59
2018-11-11T07:16:48.119Z,11.64
2018-11-11T07:17:48.106Z,11.66
2018-11-11T07:18:48.107Z,11.62
2018-11-11T07:19:48.098Z,11.63
2018-11-11T07:20:48.093Z,11.56
2018-11-11T07:21:48.065Z,11.53
2018-11-11T07:22:48.106Z,11.51
2018-11-11T07:23:48.169Z,11.53
2018-11-11T07:24:48.036Z,11.44
2018-11-11T07:25:48.025Z,11.48
2018-11-11T07:26:48.052Z,11.41
2018-11-11T07:27:47.998Z,11.45
2018-11-11T07:28:48.009Z,11.42
2018-11-11T07:29:47.978Z,11.36
2018-11-11T07:30:47.971Z,11.44
2018-11-11T07:31:47.959Z,11.44
2018-11-11T07:32:47.946Z,11.41
2018-11-11T07:33:48.003Z,11.51
2018-11-11T07:34:47.942Z,11.48
2018-11-11T07:35:47.945Z,11.46
2018-11-11T07:36:47.908Z,11.49
2018-11-11T07:37:47.909Z,11.42
2018-11-11T07:38:47.907Z,11.57
2018-11-11T07:39:47.899Z,11.59
2018-11-11T07:40:47.867Z,11.57
2018-11-11T07:41:47.849Z,11.59
2018-11-11T07:42:47.838Z,11.54
2018-11-11T07:43:47.876Z,11.70
2018-11-11T07:44:47.864Z,11.78
2018-11-11T07:45:47.844Z,11.72
2018-11-11T07:46:47.803Z,11.66
2018-11-11T07:47:47.794Z,11.67
2018-11-11T07:48:47.797Z,11.84
2018-11-11T07:49:47.792Z,11.82
2018-11-11T07:50:47.784Z,11.93
2018-11-11T07:51:47.764Z,11.88
2018-11-11T07:52:47.848Z,11.90
2018-11-11T07:53:47.742Z,11.94
2018-11-11T07:54:47.788Z,12.03
2018-11-11T07:55:47.709Z,12.08
2018-11-11T07:56:47.700Z,12.11
2018-11-11T07:57:47.686Z,12.33
2018-11-11T07:58:47.702Z,12.25
2018-11-11T07:59:47.671Z,12.30
2018-11-11T08:00:47.645Z,12.40
2018-11-11T08:01:47.765Z,12.40
2018-11-11T08:02:47.643Z,12.46
2018-11-11T08:03:47.630Z,12.54
2018-11-11T08:04:47.630Z,12.46
2018-11-11T08:05:47.601Z,12.41
2018-11-11T08:06:47.580Z,12.49
2018-11-11T08:07:47.628Z,12.55
2018-11-11T08:08:47.593Z,12.69
2018-11-11T08:09:47.551Z,12.79
2018-11-11T08:10:47.544Z,12.77
2018-11-11T08:11:47.581Z,12.95
2018-11-11T08:12:47.517Z,12.95
2018-11-11T08:13:47.520Z,12.96
2018-11-11T08:14:47.498Z,12.99
2018-11-11T08:15:47.484Z,12.96
2018-11-11T08:16:47.487Z,13.03
2018-11-11T08:17:47.507Z,13.10
2018-11-11T08:18:47.479Z,13.10
2018-11-11T08:19:47.453Z,13.16
2018-11-11T08:20:47.432Z,13.17
2018-11-11T08:21:47.419Z,13.19
2018-11-11T08:22:47.408Z,13.21
2018-11-11T08:23:47.446Z,13.12
2018-11-11T08:24:47.405Z,13.16
2018-11-11T08:25:47.379Z,13.09
2018-11-11T08:26:47.364Z,13.19
2018-11-11T08:27:47.358Z,13.21
2018-11-11T08:28:47.347Z,13.19
2018-11-11T08:29:47.385Z,13.25
2018-11-11T08:30:47.321Z,13.16
2018-11-11T08:31:47.350Z,13.16
2018-11-11T08:32:47.303Z,13.21
2018-11-11T08:33:47.288Z,13.13
2018-11-11T08:34:47.308Z,13.12
2018-11-11T08:35:47.284Z,13.03
2018-11-11T08:36:47.277Z,13.21
2018-11-11T08:37:47.268Z,13.19
2018-11-11T08:38:47.293Z,13.17
2018-11-11T08:39:47.278Z,13.14
2018-11-11T08:40:47.236Z,13.12
2018-11-11T08:41:47.254Z,13.09
2018-11-11T08:42:47.194Z,13.10
2018-11-11T08:43:47.207Z,13.07
2018-11-11T08:44:47.283Z,13.16
2018-11-11T08:45:47.162Z,13.09
2018-11-11T08:46:47.152Z,13.12
2018-11-11T08:47:47.181Z,13.07
2018-11-11T08:48:47.127Z,13.09
2018-11-11T08:49:47.143Z,13.09
2018-11-11T08:50:47.106Z,13.16
2018-11-11T08:51:47.119Z,13.16
2018-11-11T08:52:47.086Z,13.21
2018-11-11T08:53:47.076Z,13.27
2018-11-11T08:54:47.079Z,13.41
2018-11-11T08:55:47.100Z,13.54
2018-11-11T08:56:47.045Z,13.48
2018-11-11T08:57:47.068Z,13.47
2018-11-11T08:58:47.044Z,13.54
2018-11-11T08:59:47.022Z,13.61
2018-11-11T09:00:47.057Z,13.59
2018-11-11T09:01:47.028Z,13.63
2018-11-11T09:02:47.022Z,13.53
2018-11-11T09:03:46.968Z,13.66
2018-11-11T09:04:46.999Z,13.63
2018-11-11T09:05:46.960Z,13.61
2018-11-11T09:06:46.952Z,13.68
2018-11-11T09:07:46.941Z,13.72
2018-11-11T09:08:46.948Z,13.79
2018-11-11T09:09:46.901Z,13.94
2018-11-11T09:10:46.975Z,13.98
2018-11-11T09:11:46.931Z,14.05
2018-11-11T09:12:46.872Z,14.09
2018-11-11T09:13:46.868Z,14.11
2018-11-11T09:14:46.857Z,14.20
2018-11-11T09:15:46.855Z,14.16
2018-11-11T09:16:46.863Z,14.34
2018-11-11T09:17:46.813Z,14.27
2018-11-11T09:18:46.904Z,14.30
2018-11-11T09:19:46.837Z,14.30
2018-11-11T09:20:46.836Z,14.34
2018-11-11T09:21:46.771Z,14.34
2018-11-11T09:22:46.761Z,14.48
2018-11-11T09:23:46.846Z,14.44
2018-11-11T09:24:46.771Z,14.52
2018-11-11T09:25:46.757Z,14.48
2018-11-11T09:26:46.727Z,14.48
2018-11-11T09:27:46.728Z,14.52
2018-11-11T09:28:46.696Z,14.48
2018-11-11T09:29:46.811Z,14.35
2018-11-11T09:30:46.739Z,14.36
2018-11-11T09:31:46.696Z,14.27
2018-11-11T09:32:46.717Z,14.26
2018-11-11T09:33:46.655Z,14.34
2018-11-11T09:34:46.689Z,14.17
2018-11-11T09:35:46.641Z,14.27
2018-11-11T09:36:46.615Z,14.20
2018-11-11T09:37:46.596Z,14.16
2018-11-11T09:38:46.659Z,14.19
2018-11-11T09:39:46.603Z,14.24
2018-11-11T09:40:46.578Z,14.24
2018-11-11T09:41:46.561Z,14.34
2018-11-11T09:42:46.598Z,14.39
2018-11-11T09:43:46.599Z,14.48
2018-11-11T09:44:46.558Z,14.54
2018-11-11T09:45:46.526Z,14.46
2018-11-11T09:46:46.634Z,14.46
2018-11-11T09:47:46.550Z,14.52
2018-11-11T09:48:46.489Z,14.52
2018-11-11T09:49:46.505Z,14.60
2018-11-11T09:50:46.475Z,14.57
2018-11-11T09:51:46.456Z,14.64
2018-11-11T09:52:46.603Z,14.63
2018-11-11T09:53:46.500Z,14.59
2018-11-11T09:54:46.455Z,14.59
2018-11-11T09:55:46.433Z,14.63
2018-11-11T09:56:46.407Z,14.45
2018-11-11T09:57:46.481Z,14.52
2018-11-11T09:58:46.497Z,14.64
2018-11-11T09:59:46.474Z,14.61
2018-11-11T10:00:46.372Z,14.64
2018-11-11T10:01:46.429Z,14.60
2018-11-11T10:02:46.375Z,14.59
2018-11-11T10:03:46.319Z,14.61
2018-11-11T10:04:46.368Z,14.56
2018-11-11T10:05:46.325Z,14.56
2018-11-11T10:06:54.885Z,14.60
2018-11-11T10:07:46.275Z,14.67
2018-11-11T10:08:54.336Z,14.54
2018-11-11T10:11:02.969Z,14.59
2018-11-11T10:12:02.938Z,14.49
2018-11-11T10:13:02.933Z,14.52
2018-11-11T10:14:02.956Z,14.46
2018-11-11T10:15:02.910Z,14.52
2018-11-11T10:16:02.908Z,14.49
2018-11-11T10:17:02.920Z,14.45
2018-11-11T10:18:02.875Z,14.48
2018-11-11T10:19:02.866Z,14.54
2018-11-11T10:20:02.923Z,14.66
2018-11-11T10:21:02.865Z,14.82
2018-11-11T10:22:02.848Z,14.75
2018-11-11T10:23:02.830Z,14.94
2018-11-11T10:24:02.818Z,14.93
2018-11-11T10:25:02.799Z,14.98
2018-11-11T10:26:02.804Z,14.83
2018-11-11T10:27:02.797Z,14.90
2018-11-11T10:28:02.772Z,14.93
2018-11-11T10:29:02.781Z,15.00
2018-11-11T10:30:02.747Z,14.90
2018-11-11T10:31:02.752Z,14.98
2018-11-11T10:32:02.730Z,14.97
2018-11-11T10:33:02.715Z,15.03
2018-11-11T10:34:02.713Z,15.09
2018-11-11T10:35:02.693Z,15.00
2018-11-11T10:36:02.697Z,14.90
2018-11-11T10:37:02.674Z,14.79
2018-11-11T10:38:02.662Z,14.86
2018-11-11T10:39:02.705Z,14.79
2018-11-11T10:40:02.677Z,14.66
2018-11-11T10:41:02.645Z,14.80
2018-11-11T10:42:02.621Z,14.72
2018-11-11T10:43:02.610Z,14.75
2018-11-11T10:44:02.601Z,14.74
2018-11-11T10:45:02.591Z,14.75
2018-11-11T10:46:02.636Z,14.74
2018-11-11T10:47:02.564Z,14.75
2018-11-11T10:48:02.556Z,14.75
2018-11-11T10:49:02.546Z,14.78
2018-11-11T10:50:02.535Z,14.67
2018-11-11T10:51:02.522Z,14.71
2018-11-11T10:52:02.554Z,14.74
2018-11-11T10:53:02.502Z,14.82
2018-11-11T10:54:02.493Z,14.86
2018-11-11T10:55:02.480Z,14.82
2018-11-11T10:56:02.469Z,14.90
2018-11-11T10:57:02.473Z,14.91
2018-11-11T10:58:02.466Z,14.98
2018-11-11T10:59:02.439Z,14.97
2018-11-11T11:00:02.484Z,15.01
2018-11-11T11:01:02.415Z,15.01
2018-11-11T11:02:02.421Z,15.01
2018-11-11T11:03:02.397Z,15.11
2018-11-11T11:04:02.413Z,15.16
2018-11-11T11:05:02.381Z,15.19
2018-11-11T11:06:02.427Z,15.22
2018-11-11T11:07:02.365Z,15.25
2018-11-11T11:08:02.340Z,15.25
2018-11-11T11:09:02.333Z,15.23
2018-11-11T11:10:02.326Z,15.35
2018-11-11T11:11:02.311Z,15.38
2018-11-11T11:12:02.310Z,15.49
2018-11-11T11:13:02.286Z,15.53
2018-11-11T11:14:02.289Z,15.48
2018-11-11T11:15:02.264Z,15.51
2018-11-11T11:16:02.268Z,15.58
2018-11-11T11:17:02.262Z,15.51
2018-11-11T11:18:02.236Z,15.58
2018-11-11T11:19:02.227Z,15.64
2018-11-11T11:20:02.210Z,15.66
2018-11-11T11:21:02.200Z,15.62
2018-11-11T11:22:02.219Z,15.67
2018-11-11T11:23:02.358Z,15.68
2018-11-11T11:24:02.172Z,15.74
2018-11-11T11:25:02.157Z,15.70
2018-11-11T11:26:02.148Z,15.71
2018-11-11T11:27:02.165Z,15.68
2018-11-11T11:28:02.141Z,15.66
2018-11-11T11:29:02.117Z,15.81
2018-11-11T11:30:02.103Z,15.93
2018-11-11T11:31:02.089Z,15.92
2018-11-11T11:32:02.144Z,15.99
2018-11-11T11:33:02.069Z,16.06
2018-11-11T11:34:02.086Z,16.06
2018-11-11T11:35:02.067Z,16.04
2018-11-11T11:36:02.039Z,16.13
2018-11-11T11:37:02.037Z,16.29
2018-11-11T11:38:02.047Z,16.44
2018-11-11T11:39:02.009Z,16.63
2018-11-11T11:40:01.994Z,16.62
2018-11-11T11:41:02.059Z,16.54
2018-11-11T11:42:02.001Z,16.47
2018-11-11T11:43:01.959Z,16.65
2018-11-11T11:44:02.017Z,16.72
2018-11-11T11:45:01.976Z,17.02
2018-11-11T11:46:01.929Z,16.95
2018-11-11T11:47:01.931Z,16.81
2018-11-11T11:48:01.924Z,16.85
2018-11-11T11:49:01.897Z,16.85
2018-11-11T11:50:01.966Z,17.32
2018-11-11T11:51:01.880Z,17.66
2018-11-11T11:52:01.923Z,17.60
2018-11-11T11:53:01.897Z,17.60
2018-11-11T11:54:01.847Z,17.40
2018-11-11T11:55:01.837Z,17.27
2018-11-11T11:56:01.825Z,17.15
2018-11-11T11:57:01.813Z,17.32
2018-11-11T11:58:01.869Z,17.25
2018-11-11T11:59:01.795Z,17.28
2018-11-11T12:00:01.790Z,17.32
2018-11-11T12:01:01.772Z,17.09
2018-11-11T12:02:01.789Z,17.12
2018-11-11T12:03:01.765Z,17.17
2018-11-11T12:04:01.741Z,17.28
2018-11-11T12:05:01.728Z,17.14
2018-11-11T12:06:01.721Z,16.99
2018-11-11T12:07:01.706Z,16.98
2018-11-11T12:08:01.710Z,16.91
2018-11-11T12:09:01.749Z,16.88
2018-11-11T12:10:01.676Z,16.70
2018-11-11T12:11:01.662Z,16.81
2018-11-11T12:12:01.682Z,16.78
2018-11-11T12:13:01.656Z,16.84
2018-11-11T12:14:01.634Z,16.90
2018-11-11T12:15:01.625Z,17.10
2018-11-11T12:16:01.611Z,17.32
2018-11-11T12:17:01.614Z,17.33
2018-11-11T12:18:01.626Z,17.53
2018-11-11T12:19:01.583Z,17.47
2018-11-11T12:20:01.572Z,17.45
2018-11-11T12:21:01.556Z,17.43
2018-11-11T12:22:01.541Z,17.42
2018-11-11T12:23:01.583Z,17.47
2018-11-11T12:24:01.552Z,17.45
2018-11-11T12:25:01.509Z,17.63
2018-11-11T12:26:01.499Z,17.71
2018-11-11T12:27:01.488Z,17.96
2018-11-11T12:28:01.490Z,17.96
2018-11-11T12:29:01.463Z,18.13
2018-11-11T12:30:01.472Z,18.01
2018-11-11T12:31:01.484Z,17.95
2018-11-11T12:32:01.430Z,17.76
2018-11-11T12:33:01.430Z,17.58
2018-11-11T12:34:01.408Z,17.65
2018-11-11T12:35:01.453Z,17.62
2018-11-11T12:36:01.400Z,17.63
2018-11-11T12:37:01.380Z,17.74
2018-11-11T12:38:01.380Z,17.89
2018-11-11T12:39:01.421Z,17.91
2018-11-11T12:40:01.564Z,17.99
2018-11-11T12:41:01.331Z,17.86
2018-11-11T12:42:01.344Z,17.80
2018-11-11T12:43:01.323Z,17.63
2018-11-11T12:44:01.298Z,17.45
2018-11-11T12:45:01.286Z,17.24
2018-11-11T12:46:01.276Z,17.36
2018-11-11T12:47:01.406Z,17.25
2018-11-11T12:48:01.290Z,17.30
2018-11-11T12:49:01.261Z,17.36
2018-11-11T12:50:01.294Z,17.28
2018-11-11T12:51:01.222Z,17.27
2018-11-11T12:52:01.211Z,17.32
2018-11-11T12:53:01.211Z,17.35
2018-11-11T12:54:01.220Z,17.24
2018-11-11T12:55:01.174Z,17.28
2018-11-11T12:56:01.166Z,17.30
2018-11-11T12:57:01.155Z,17.28